SCKM weather

Cochamó Airport
Cochamo, Los Lagos Region, Chile

Public forecast

Using degrees Celsius for public forecast. Weather courtesy of forecast.io.

METAR (pilot weather report)

Closest report is El Tepual Airport, 35.8 nm (66.3 km) W. Retrieved 2019/04/20 16:00 UTC (27 minutes ago):

SCTE 201600Z 16005KT 130V190 9999 OVC020 11/07 Q1020 NOSIG

TAF (pilot weather forecast)

Closest forecast is El Tepual Airport, 35.8 nm (66.3 km) W. Retrieved 2019/04/20 12:00 UTC (4 hours ago):

TAF SCTE 201034Z 2012/2112 21004KT 9999 BKN020 TX13/2019Z TN02/2111Z BECMG 2016/2018 17008KT BECMG 2020/2022 SCT025 BECMG 2102/2104 VRB02KT 2000 BR SCT005 TEMPO 2106/2112 0300 FG OVC002